createdAt,value
2022-10-31T00:01:38.724Z,97403.00
2022-10-31T00:04:07.858Z,97428.00
2022-10-31T00:06:37.347Z,97438.00
2022-10-31T00:09:06.538Z,97432.00
2022-10-31T00:11:34.670Z,97442.00
2022-10-31T00:14:03.343Z,97431.00
2022-10-31T00:16:32.585Z,97434.00
2022-10-31T00:19:04.496Z,97447.00
2022-10-31T00:21:33.431Z,97440.00
2022-10-31T00:24:03.593Z,97441.00
2022-10-31T00:26:33.081Z,97434.00
2022-10-31T00:29:02.143Z,97428.00
2022-10-31T00:31:30.581Z,97443.00
2022-10-31T00:34:00.151Z,97437.00
2022-10-31T00:36:28.662Z,97448.00
2022-10-31T00:38:56.873Z,97452.00
2022-10-31T00:41:27.348Z,97454.00
2022-10-31T00:43:55.407Z,97450.00
2022-10-31T00:46:23.481Z,97454.00
2022-10-31T00:48:52.513Z,97448.00
2022-10-31T00:51:20.551Z,97458.00
2022-10-31T00:53:48.713Z,97459.00
2022-10-31T00:56:16.843Z,97465.00
2022-10-31T00:58:46.210Z,97464.00
2022-10-31T01:01:14.446Z,97461.00
2022-10-31T01:03:42.639Z,97462.00
2022-10-31T01:06:15.638Z,97459.00
2022-10-31T01:08:44.084Z,97466.00
2022-10-31T01:11:17.487Z,97460.00
2022-10-31T01:13:47.767Z,97475.00
2022-10-31T01:16:20.761Z,97466.00
2022-10-31T01:18:49.380Z,97457.00
2022-10-31T01:21:20.751Z,97404.00
2022-10-31T01:23:50.961Z,97459.00
2022-10-31T01:26:22.615Z,97451.00
2022-10-31T01:28:54.328Z,97471.00
2022-10-31T01:31:25.814Z,97440.00
2022-10-31T01:33:54.442Z,97461.00
2022-10-31T01:36:25.067Z,97462.00
2022-10-31T01:38:55.680Z,97476.00
2022-10-31T01:41:27.706Z,97454.00
2022-10-31T01:43:59.926Z,97484.00
2022-10-31T01:46:34.458Z,97454.00
2022-10-31T01:49:06.165Z,97474.00
2022-10-31T01:51:39.584Z,97441.00
2022-10-31T01:54:13.055Z,97406.00
2022-10-31T01:56:50.081Z,97465.00
2022-10-31T01:59:22.965Z,97436.00
2022-10-31T02:01:54.201Z,97451.00
2022-10-31T02:04:26.703Z,97448.00
2022-10-31T02:07:02.941Z,97442.00
2022-10-31T02:09:33.660Z,97453.00
2022-10-31T02:12:05.452Z,97453.00
2022-10-31T02:14:37.216Z,97451.00
2022-10-31T02:17:05.601Z,97452.00
2022-10-31T02:19:47.207Z,97454.00
2022-10-31T02:22:28.123Z,97450.00
2022-10-31T02:25:23.142Z,97450.00
2022-10-31T02:31:10.713Z,97447.00
2022-10-31T02:33:50.234Z,97437.00
2022-10-31T02:36:28.153Z,97431.00
2022-10-31T02:39:13.539Z,97443.00
2022-10-31T02:41:54.283Z,97437.00
2022-10-31T02:44:32.581Z,97449.00
2022-10-31T02:47:08.338Z,97439.00
2022-10-31T02:49:45.403Z,97432.00
2022-10-31T02:52:20.634Z,97433.00
2022-10-31T02:54:50.551Z,97435.00
2022-10-31T02:57:25.138Z,97440.00
2022-10-31T03:00:02.482Z,97463.00
2022-10-31T03:02:52.597Z,97432.00
2022-10-31T03:05:39.119Z,97436.00
2022-10-31T03:08:16.746Z,97410.00
2022-10-31T03:10:51.735Z,97444.00
2022-10-31T03:13:32.928Z,97470.00
2022-10-31T03:16:11.177Z,97388.00
2022-10-31T03:18:47.190Z,97442.00
2022-10-31T03:21:24.045Z,97445.00
2022-10-31T03:23:56.958Z,97440.00
2022-10-31T03:26:27.328Z,97454.00
2022-10-31T03:29:00.424Z,97448.00
2022-10-31T03:31:34.048Z,97454.00
2022-10-31T03:34:06.503Z,97451.00
2022-10-31T03:36:37.375Z,97447.00
2022-10-31T03:39:14.767Z,97450.00
2022-10-31T03:41:47.488Z,97444.00
2022-10-31T03:44:21.140Z,97442.00
2022-10-31T03:46:57.918Z,97423.00
2022-10-31T03:49:27.988Z,97458.00
2022-10-31T03:52:06.609Z,97426.00
2022-10-31T03:54:44.418Z,97436.00
2022-10-31T03:57:23.638Z,97448.00
2022-10-31T04:00:00.662Z,97444.00
2022-10-31T04:02:34.237Z,97445.00
2022-10-31T04:05:06.226Z,97443.00
2022-10-31T04:07:42.208Z,97452.00
2022-10-31T04:10:15.563Z,97452.00
2022-10-31T04:12:52.589Z,97438.00
2022-10-31T04:15:29.026Z,97425.00
2022-10-31T04:18:02.201Z,97434.00
2022-10-31T04:20:39.303Z,97448.00
2022-10-31T04:23:18.323Z,97459.00
2022-10-31T04:25:46.792Z,97448.00
2022-10-31T04:28:15.225Z,97440.00
2022-10-31T04:30:44.758Z,97441.00
2022-10-31T04:33:12.891Z,97441.00
2022-10-31T04:35:42.340Z,97435.00
2022-10-31T04:38:11.883Z,97459.00
2022-10-31T04:40:41.139Z,97440.00
2022-10-31T04:43:29.141Z,97440.00
2022-10-31T04:45:57.238Z,97446.00
2022-10-31T04:48:25.614Z,97455.00
2022-10-31T04:51:00.172Z,97447.00
2022-10-31T04:53:29.011Z,97439.00
2022-10-31T04:56:26.403Z,97442.00
2022-10-31T04:58:59.839Z,97445.00
2022-10-31T05:01:31.002Z,97462.00
2022-10-31T05:04:01.362Z,97462.00
2022-10-31T05:06:31.884Z,97468.00
2022-10-31T05:09:00.018Z,97464.00
2022-10-31T05:11:28.213Z,97450.00
2022-10-31T05:14:01.323Z,97455.00
2022-10-31T05:16:58.268Z,97457.00
2022-10-31T05:19:45.343Z,97449.00
2022-10-31T05:22:33.108Z,97456.00
2022-10-31T05:25:01.336Z,97452.00
2022-10-31T05:27:30.525Z,97450.00
2022-10-31T05:32:32.454Z,97437.00
2022-10-31T05:35:26.343Z,97454.00
2022-10-31T05:38:12.336Z,97439.00
2022-10-31T05:40:40.451Z,97448.00
2022-10-31T05:43:08.604Z,97455.00
2022-10-31T05:45:36.842Z,97455.00
2022-10-31T05:48:10.735Z,97457.00
2022-10-31T05:50:58.720Z,97456.00
2022-10-31T05:53:28.753Z,97467.00
2022-10-31T05:55:57.063Z,97452.00
2022-10-31T05:58:25.206Z,97460.00
2022-10-31T06:01:04.600Z,97459.00
2022-10-31T06:03:32.826Z,97449.00
2022-10-31T06:06:03.866Z,97475.00
2022-10-31T06:08:38.618Z,97467.00
2022-10-31T06:11:13.739Z,97474.00
2022-10-31T06:14:00.127Z,97463.00
2022-10-31T06:16:35.903Z,97469.00
2022-10-31T06:19:24.234Z,97452.00
2022-10-31T06:21:52.581Z,97463.00
2022-10-31T06:24:22.767Z,97448.00
2022-10-31T06:27:02.504Z,97457.00
2022-10-31T06:29:30.619Z,97453.00
2022-10-31T06:32:06.001Z,97446.00
2022-10-31T06:34:42.431Z,97478.00
2022-10-31T06:37:12.453Z,97472.00
2022-10-31T06:39:44.545Z,97480.00
2022-10-31T06:42:16.961Z,97482.00
2022-10-31T06:44:45.562Z,97476.00
2022-10-31T06:48:15.641Z,97482.00
2022-10-31T06:51:01.005Z,97489.00
2022-10-31T06:53:30.740Z,97490.00
2022-10-31T06:56:01.489Z,97495.00
2022-10-31T06:58:31.049Z,97488.00
2022-10-31T07:01:03.919Z,97509.00
2022-10-31T07:03:32.228Z,97494.00
2022-10-31T07:06:00.986Z,97519.00
2022-10-31T07:08:29.800Z,97524.00
2022-10-31T07:11:00.295Z,97512.00
2022-10-31T07:13:30.609Z,97487.00
2022-10-31T07:16:08.099Z,97498.00
2022-10-31T07:18:38.101Z,97530.00
2022-10-31T07:21:07.379Z,97536.00
2022-10-31T07:23:35.563Z,97552.00
2022-10-31T07:26:40.376Z,97546.00
2022-10-31T07:29:08.971Z,97548.00
2022-10-31T07:31:37.303Z,97539.00
2022-10-31T07:34:11.747Z,97553.00
2022-10-31T07:37:15.114Z,97549.00
2022-10-31T07:39:43.344Z,97549.00
2022-10-31T07:42:12.795Z,97546.00
2022-10-31T07:44:45.222Z,97531.00
2022-10-31T07:47:32.002Z,97547.00
2022-10-31T07:50:20.905Z,97549.00
2022-10-31T07:53:10.191Z,97553.00
2022-10-31T07:55:51.031Z,97557.00
2022-10-31T07:58:21.815Z,97547.00
2022-10-31T08:00:50.489Z,97552.00
2022-10-31T08:03:30.310Z,97544.00
2022-10-31T08:06:16.913Z,97547.00
2022-10-31T08:09:13.103Z,97540.00
2022-10-31T08:11:41.889Z,97554.00
2022-10-31T08:14:11.297Z,97556.00
2022-10-31T08:16:39.432Z,97571.00
2022-10-31T08:19:08.902Z,97559.00
2022-10-31T08:21:40.061Z,97551.00
2022-10-31T08:24:10.309Z,97561.00
2022-10-31T08:26:39.070Z,97558.00
2022-10-31T08:29:11.749Z,97559.00
2022-10-31T08:31:43.017Z,97549.00
2022-10-31T08:34:29.729Z,97547.00
2022-10-31T08:37:20.676Z,97558.00
2022-10-31T08:39:51.161Z,97550.00
2022-10-31T08:42:20.281Z,97556.00
2022-10-31T08:44:49.722Z,97549.00
2022-10-31T08:47:19.925Z,97546.00
2022-10-31T08:49:49.322Z,97534.00
2022-10-31T08:52:17.620Z,97558.00
2022-10-31T08:54:49.048Z,97543.00
2022-10-31T08:57:35.790Z,97548.00
2022-10-31T09:00:06.636Z,97531.00
2022-10-31T09:02:43.498Z,97524.00
2022-10-31T09:05:11.616Z,97524.00
2022-10-31T09:07:39.912Z,97545.00
2022-10-31T09:10:08.961Z,97530.00
2022-10-31T09:12:39.919Z,97524.00
2022-10-31T09:15:29.512Z,97525.00
2022-10-31T09:18:11.793Z,97520.00
2022-10-31T09:20:48.720Z,97523.00
2022-10-31T09:23:19.237Z,97535.00
2022-10-31T09:25:50.653Z,97529.00
2022-10-31T09:28:35.650Z,97512.00
2022-10-31T09:31:13.359Z,97534.00
2022-10-31T09:34:01.044Z,97525.00
2022-10-31T09:36:39.500Z,97537.00
2022-10-31T09:39:15.072Z,97527.00
2022-10-31T09:42:08.246Z,97536.00
2022-10-31T09:44:53.661Z,97532.00
2022-10-31T09:47:53.016Z,97534.00
2022-10-31T09:50:44.838Z,97529.00
2022-10-31T09:53:40.728Z,97533.00
2022-10-31T09:56:17.699Z,97526.00
2022-10-31T09:58:51.991Z,97539.00
2022-10-31T10:01:39.387Z,97533.00
2022-10-31T10:04:41.629Z,97533.00
2022-10-31T10:07:33.614Z,97522.00
2022-10-31T10:10:37.190Z,97527.00
2022-10-31T10:14:03.551Z,97530.00
2022-10-31T10:17:04.456Z,97533.00
2022-10-31T10:19:56.317Z,97725.00
2022-10-31T10:22:40.062Z,97724.00
2022-10-31T10:25:22.622Z,97721.00
2022-10-31T10:28:05.620Z,97720.00
2022-10-31T10:30:43.877Z,97720.00
2022-10-31T10:33:18.363Z,97703.00
2022-10-31T10:36:49.381Z,97694.00
2022-10-31T10:40:05.997Z,97721.00
2022-10-31T10:43:25.302Z,97746.00
2022-10-31T10:46:25.008Z,97745.00
2022-10-31T10:49:06.738Z,97736.00
2022-10-31T10:51:58.315Z,97740.00
2022-10-31T10:55:04.008Z,97730.00
2022-10-31T10:57:57.802Z,97728.00
2022-10-31T11:00:29.677Z,97666.00
2022-10-31T11:02:58.379Z,97722.00
2022-10-31T11:05:36.089Z,97489.00
2022-10-31T11:08:07.122Z,97536.00
2022-10-31T11:10:36.188Z,97544.00
2022-10-31T11:13:24.178Z,97529.00
2022-10-31T11:16:00.349Z,97702.00
2022-10-31T11:18:32.069Z,97704.00
2022-10-31T11:21:05.109Z,97707.00
2022-10-31T11:26:25.459Z,97491.00
2022-10-31T11:28:59.953Z,97488.00
2022-10-31T11:31:29.351Z,97503.00
2022-10-31T11:34:02.618Z,97503.00
2022-10-31T11:36:37.990Z,97505.00
2022-10-31T11:39:17.644Z,97502.00
2022-10-31T11:41:47.417Z,97500.00
2022-10-31T11:44:20.661Z,97501.00
2022-10-31T11:46:55.458Z,97495.00
2022-10-31T11:49:32.142Z,97497.00
2022-10-31T11:52:06.282Z,97503.00
2022-10-31T11:54:49.030Z,97490.00
2022-10-31T11:57:29.907Z,97487.00
2022-10-31T12:00:01.078Z,97486.00
2022-10-31T12:02:29.632Z,97490.00
2022-10-31T12:05:10.563Z,97472.00
2022-10-31T12:07:38.791Z,97483.00
2022-10-31T12:10:13.445Z,97471.00
2022-10-31T12:13:04.557Z,97459.00
2022-10-31T12:15:38.722Z,97481.00
2022-10-31T12:18:37.041Z,97467.00
2022-10-31T12:21:29.874Z,97469.00
2022-10-31T12:24:15.631Z,97457.00
2022-10-31T12:27:05.784Z,97646.00
2022-10-31T12:30:01.762Z,97645.00
2022-10-31T12:32:48.590Z,97641.00
2022-10-31T12:35:42.993Z,97635.00
2022-10-31T12:38:48.766Z,97629.00
2022-10-31T12:41:46.714Z,97647.00
2022-10-31T12:44:57.680Z,97637.00
2022-10-31T12:48:03.344Z,97622.00
2022-10-31T12:50:52.613Z,97595.00
2022-10-31T12:53:51.921Z,97599.00
2022-10-31T12:56:44.782Z,97597.00
2022-10-31T12:59:23.457Z,97412.00
2022-10-31T13:01:58.095Z,97414.00
2022-10-31T13:04:42.740Z,97401.00
2022-10-31T13:07:17.815Z,97406.00
2022-10-31T13:10:03.548Z,97401.00
2022-10-31T13:12:37.523Z,97401.00
2022-10-31T13:15:17.761Z,97399.00
2022-10-31T13:17:51.569Z,97395.00
2022-10-31T13:20:28.510Z,97406.00
2022-10-31T13:23:23.896Z,97387.00
2022-10-31T13:26:15.469Z,97394.00
2022-10-31T13:31:25.286Z,97401.00
2022-10-31T13:33:57.983Z,97399.00
2022-10-31T13:36:37.037Z,97406.00
2022-10-31T13:39:23.482Z,97398.00
2022-10-31T13:42:00.637Z,97394.00
2022-10-31T13:44:35.801Z,97395.00
2022-10-31T13:47:27.261Z,97413.00
2022-10-31T13:50:20.299Z,97389.00
2022-10-31T13:52:48.609Z,97391.00
2022-10-31T13:55:40.160Z,97395.00
2022-10-31T13:58:25.767Z,97392.00
2022-10-31T14:01:18.112Z,97356.00
2022-10-31T14:04:11.038Z,97387.00
2022-10-31T14:06:49.746Z,97375.00
2022-10-31T14:09:25.390Z,97370.00
2022-10-31T14:11:54.447Z,97371.00
2022-10-31T14:14:28.094Z,97368.00
2022-10-31T14:16:59.939Z,97365.00
2022-10-31T14:19:30.759Z,97355.00
2022-10-31T14:22:01.276Z,97355.00
2022-10-31T14:24:38.817Z,97353.00
2022-10-31T14:27:48.161Z,97360.00
2022-10-31T14:30:20.975Z,97352.00
2022-10-31T14:32:55.291Z,97347.00
2022-10-31T14:35:38.608Z,97346.00
2022-10-31T14:38:32.076Z,97307.00
2022-10-31T14:41:42.186Z,97315.00
2022-10-31T14:44:43.527Z,97346.00
2022-10-31T14:47:26.447Z,97352.00
2022-10-31T14:50:26.341Z,97341.00
2022-10-31T14:52:59.265Z,97340.00
2022-10-31T14:55:29.366Z,97290.00
2022-10-31T14:58:02.941Z,97324.00
2022-10-31T15:00:34.217Z,97320.00
2022-10-31T15:03:19.385Z,97317.00
2022-10-31T15:05:54.525Z,97282.00
2022-10-31T15:08:35.791Z,97326.00
2022-10-31T15:11:14.099Z,97316.00
2022-10-31T15:13:48.566Z,97307.00
2022-10-31T15:16:21.691Z,97295.00
2022-10-31T15:19:02.484Z,97297.00
2022-10-31T15:21:32.412Z,97300.00
2022-10-31T15:24:04.494Z,97291.00
2022-10-31T15:26:41.435Z,97272.00
2022-10-31T15:29:16.497Z,97300.00
2022-10-31T15:31:52.638Z,97296.00
2022-10-31T15:34:28.500Z,97291.00
2022-10-31T15:36:58.347Z,97289.00
2022-10-31T15:39:26.446Z,97279.00
2022-10-31T15:41:57.302Z,97294.00
2022-10-31T15:44:29.833Z,97231.00
2022-10-31T15:47:00.693Z,97291.00
2022-10-31T15:49:38.297Z,97290.00
2022-10-31T15:52:29.563Z,97264.00
2022-10-31T15:55:02.667Z,97284.00
2022-10-31T15:57:31.941Z,97209.00
2022-10-31T16:00:00.549Z,97290.00
2022-10-31T16:02:29.962Z,97272.00
2022-10-31T16:05:01.431Z,97231.00
2022-10-31T16:07:32.185Z,97257.00
2022-10-31T16:10:02.311Z,97269.00
2022-10-31T16:12:38.139Z,97261.00
2022-10-31T16:15:15.624Z,97263.00
2022-10-31T16:17:49.572Z,97268.00
2022-10-31T16:20:23.700Z,97249.00
2022-10-31T16:22:55.667Z,97261.00
2022-10-31T16:25:30.808Z,97259.00
2022-10-31T16:28:05.613Z,97265.00
2022-10-31T16:30:46.803Z,97245.00
2022-10-31T16:33:34.243Z,97245.00
2022-10-31T16:36:30.011Z,97261.00
2022-10-31T16:38:52.691Z,97192.00
2022-10-31T16:41:20.961Z,97268.00
2022-10-31T16:43:52.442Z,97254.00
2022-10-31T16:46:26.226Z,97269.00
2022-10-31T16:48:54.847Z,97300.00
2022-10-31T16:51:23.300Z,97301.00
2022-10-31T16:53:54.473Z,97286.00
2022-10-31T16:56:31.684Z,97290.00
2022-10-31T16:59:00.896Z,97294.00
2022-10-31T17:01:29.318Z,97298.00
2022-10-31T17:03:57.518Z,97302.00
2022-10-31T17:06:28.332Z,97288.00
2022-10-31T17:08:57.798Z,97324.00
2022-10-31T17:11:28.144Z,97294.00
2022-10-31T17:13:57.376Z,97313.00
2022-10-31T17:16:25.631Z,97259.00
2022-10-31T17:18:53.692Z,97265.00
2022-10-31T17:21:24.716Z,97256.00
2022-10-31T17:23:53.115Z,97232.00
2022-10-31T17:26:25.563Z,97260.00
2022-10-31T17:28:53.655Z,97263.00
2022-10-31T17:31:25.306Z,97242.00
2022-10-31T17:34:02.111Z,97263.00
2022-10-31T17:36:31.761Z,97241.00
2022-10-31T17:39:00.033Z,97247.00
2022-10-31T17:41:29.494Z,97312.00
2022-10-31T17:43:57.704Z,97299.00
2022-10-31T17:46:27.020Z,97303.00
2022-10-31T17:48:55.150Z,97301.00
2022-10-31T17:51:23.353Z,97287.00
2022-10-31T17:53:51.413Z,97293.00
2022-10-31T17:56:19.498Z,97287.00
2022-10-31T17:58:48.974Z,97286.00
2022-10-31T18:01:19.861Z,97289.00
2022-10-31T18:03:47.955Z,97287.00
2022-10-31T18:06:16.908Z,97284.00
2022-10-31T18:08:47.842Z,97292.00
2022-10-31T18:11:22.081Z,97290.00
2022-10-31T18:13:56.391Z,97283.00
2022-10-31T18:16:25.065Z,97286.00
2022-10-31T18:18:54.934Z,97282.00
2022-10-31T18:21:23.357Z,97281.00
2022-10-31T18:23:56.066Z,97279.00
2022-10-31T18:26:25.824Z,97245.00
2022-10-31T18:28:55.666Z,97271.00
2022-10-31T18:31:24.429Z,97264.00
2022-10-31T18:33:54.598Z,97260.00
2022-10-31T18:36:23.745Z,97271.00
2022-10-31T18:38:51.939Z,97237.00
2022-10-31T18:41:20.296Z,97270.00
2022-10-31T18:43:48.554Z,97241.00
2022-10-31T18:46:19.029Z,97277.00
2022-10-31T18:48:47.498Z,97267.00
2022-10-31T18:51:18.300Z,97274.00
2022-10-31T18:53:52.902Z,97259.00
2022-10-31T18:56:22.244Z,97259.00
2022-10-31T18:58:50.476Z,97257.00
2022-10-31T19:01:22.258Z,97255.00
2022-10-31T19:03:55.897Z,97246.00
2022-10-31T19:06:24.655Z,97259.00
2022-10-31T19:08:59.519Z,97277.00
2022-10-31T19:11:28.104Z,97273.00
2022-10-31T19:13:58.212Z,97238.00
2022-10-31T19:16:28.659Z,97249.00
2022-10-31T19:18:59.907Z,97225.00
2022-10-31T19:21:28.581Z,97215.00
2022-10-31T19:23:58.091Z,97225.00
2022-10-31T19:26:27.219Z,97223.00
2022-10-31T19:28:57.167Z,97143.00
2022-10-31T19:31:27.069Z,97201.00
2022-10-31T19:33:55.173Z,97209.00
2022-10-31T19:36:24.398Z,97214.00
2022-10-31T19:38:54.347Z,97212.00
2022-10-31T19:41:26.042Z,97208.00
2022-10-31T19:43:55.295Z,97213.00
2022-10-31T19:46:51.791Z,97192.00
2022-10-31T19:49:14.698Z,97199.00
2022-10-31T19:51:42.722Z,97220.00
2022-10-31T19:54:12.508Z,97204.00
2022-10-31T19:56:40.589Z,97189.00
2022-10-31T19:59:09.009Z,97183.00
2022-10-31T20:01:37.448Z,97179.00
2022-10-31T20:04:05.909Z,97187.00
2022-10-31T20:06:39.262Z,97196.00
2022-10-31T20:09:14.242Z,97194.00
2022-10-31T20:11:45.159Z,97199.00
2022-10-31T20:14:16.448Z,97201.00
2022-10-31T20:16:45.964Z,97149.00
2022-10-31T20:19:14.316Z,97183.00
2022-10-31T20:21:43.946Z,97184.00
2022-10-31T20:24:12.644Z,97171.00
2022-10-31T20:26:43.203Z,97170.00
2022-10-31T20:29:15.825Z,97181.00
2022-10-31T20:31:45.607Z,97138.00
2022-10-31T20:34:14.165Z,97184.00
2022-10-31T20:36:43.797Z,97181.00
2022-10-31T20:39:11.920Z,97172.00
2022-10-31T20:41:40.208Z,97188.00
2022-10-31T20:44:09.709Z,97191.00
2022-10-31T20:46:39.230Z,97139.00
2022-10-31T20:49:08.166Z,97150.00
2022-10-31T20:51:36.330Z,97167.00
2022-10-31T20:54:06.741Z,97174.00
2022-10-31T20:56:34.787Z,97169.00
2022-10-31T20:59:03.078Z,97163.00
2022-10-31T21:01:35.866Z,97157.00
2022-10-31T21:04:06.391Z,97168.00
2022-10-31T21:06:35.227Z,97156.00
2022-10-31T21:09:05.174Z,97154.00
2022-10-31T21:11:34.397Z,97159.00
2022-10-31T21:14:02.517Z,97154.00
2022-10-31T21:16:35.901Z,97154.00
2022-10-31T21:19:05.921Z,97148.00
2022-10-31T21:21:36.603Z,97143.00
2022-10-31T21:24:09.603Z,97130.00
2022-10-31T21:26:40.835Z,97117.00
2022-10-31T21:29:11.078Z,97127.00
2022-10-31T21:31:40.817Z,97137.00
2022-10-31T21:34:10.395Z,97137.00
2022-10-31T21:36:38.567Z,97144.00
2022-10-31T21:39:10.295Z,97139.00
2022-10-31T21:41:38.603Z,97147.00
2022-10-31T21:44:06.976Z,97133.00
2022-10-31T21:46:38.688Z,97165.00
2022-10-31T21:49:07.548Z,97126.00
2022-10-31T21:51:37.464Z,97117.00
2022-10-31T21:54:25.132Z,97107.00
2022-10-31T21:56:53.260Z,97119.00
2022-10-31T21:59:21.888Z,97110.00
2022-10-31T22:01:50.373Z,97110.00
2022-10-31T22:04:19.626Z,97110.00
2022-10-31T22:06:47.818Z,97109.00
2022-10-31T22:09:19.635Z,97089.00
2022-10-31T22:11:48.017Z,97064.00
2022-10-31T22:14:16.858Z,97083.00
2022-10-31T22:16:45.165Z,97071.00
2022-10-31T22:19:15.479Z,97075.00
2022-10-31T22:21:47.260Z,97088.00
2022-10-31T22:24:17.440Z,97107.00
2022-10-31T22:26:45.767Z,97080.00
2022-10-31T22:29:17.171Z,97082.00
2022-10-31T22:31:50.555Z,97006.00
2022-10-31T22:34:21.798Z,97089.00
2022-10-31T22:36:49.878Z,97087.00
2022-10-31T22:39:21.859Z,97060.00
2022-10-31T22:41:51.020Z,97080.00
2022-10-31T22:44:19.061Z,97072.00
2022-10-31T22:46:47.179Z,97075.00
2022-10-31T22:49:16.499Z,97074.00
2022-10-31T22:51:46.801Z,97075.00
2022-10-31T22:54:17.265Z,97051.00
2022-10-31T22:56:47.463Z,97050.00
2022-10-31T22:59:17.846Z,97043.00
2022-10-31T23:01:46.614Z,97032.00
2022-10-31T23:04:16.277Z,97037.00
2022-10-31T23:06:49.095Z,96971.00
2022-10-31T23:09:18.566Z,97039.00
2022-10-31T23:11:48.177Z,96999.00
2022-10-31T23:14:20.634Z,97019.00
2022-10-31T23:16:51.520Z,96950.00
2022-10-31T23:19:22.545Z,96934.00
2022-10-31T23:21:57.721Z,97013.00
2022-10-31T23:24:33.962Z,96999.00
2022-10-31T23:27:06.079Z,96993.00
2022-10-31T23:29:35.717Z,97005.00
2022-10-31T23:32:06.005Z,96993.00
2022-10-31T23:34:34.227Z,96986.00
2022-10-31T23:37:02.491Z,96993.00
2022-10-31T23:39:30.650Z,96993.00
2022-10-31T23:41:58.948Z,96996.00
2022-10-31T23:44:28.349Z,96980.00
2022-10-31T23:46:56.417Z,96989.00
2022-10-31T23:49:24.474Z,96976.00
2022-10-31T23:51:52.600Z,96972.00
2022-10-31T23:54:20.649Z,96976.00
2022-10-31T23:56:49.051Z,96979.00
2022-10-31T23:59:17.115Z,96988.00
